sensor_id;sensor_type;location;lat;lon;timestamp;temperature;humidity
23507;DHT22;11930;53.076;18.250;2022-10-16T00:01:23;13.90;99.90
23507;DHT22;11930;53.076;18.250;2022-10-16T00:03:50;13.90;99.90
23507;DHT22;11930;53.076;18.250;2022-10-16T00:06:17;13.70;99.90
23507;DHT22;11930;53.076;18.250;2022-10-16T00:08:44;13.70;99.90
23507;DHT22;11930;53.076;18.250;2022-10-16T00:11:13;13.60;99.90
23507;DHT22;11930;53.076;18.250;2022-10-16T00:13:42;13.50;99.90
23507;DHT22;11930;53.076;18.250;2022-10-16T00:16:10;13.50;99.90
23507;DHT22;11930;53.076;18.250;2022-10-16T00:18:37;13.40;99.90
23507;DHT22;11930;53.076;18.250;2022-10-16T00:21:12;13.30;99.90
23507;DHT22;11930;53.076;18.250;2022-10-16T00:23:39;13.20;99.90
23507;DHT22;11930;53.076;18.250;2022-10-16T00:26:08;13.20;99.90
23507;DHT22;11930;53.076;18.250;2022-10-16T00:28:35;13.10;99.90
23507;DHT22;11930;53.076;18.250;2022-10-16T00:31:10;13.10;99.90
23507;DHT22;11930;53.076;18.250;2022-10-16T00:33:37;13.00;99.90
23507;DHT22;11930;53.076;18.250;2022-10-16T00:36:05;12.90;99.90
23507;DHT22;11930;53.076;18.250;2022-10-16T00:38:32;13.00;99.90
23507;DHT22;11930;53.076;18.250;2022-10-16T00:40:58;12.90;99.90
23507;DHT22;11930;53.076;18.250;2022-10-16T00:43:46;12.80;99.90
23507;DHT22;11930;53.076;18.250;2022-10-16T00:46:38;12.80;99.90
23507;DHT22;11930;53.076;18.250;2022-10-16T00:51:47;12.90;99.90
23507;DHT22;11930;53.076;18.250;2022-10-16T00:54:22;12.90;99.90
23507;DHT22;11930;53.076;18.250;2022-10-16T00:56:49;13.00;99.90
23507;DHT22;11930;53.076;18.250;2022-10-16T00:59:19;13.00;99.90
23507;DHT22;11930;53.076;18.250;2022-10-16T01:01:46;13.00;99.90
23507;DHT22;11930;53.076;18.250;2022-10-16T01:04:12;13.00;99.90
23507;DHT22;11930;53.076;18.250;2022-10-16T01:15:42;13.00;99.90
23507;DHT22;11930;53.076;18.250;2022-10-16T01:18:21;13.00;99.90
23507;DHT22;11930;53.076;18.250;2022-10-16T01:21:01;13.10;99.90
23507;DHT22;11930;53.076;18.250;2022-10-16T01:24:08;13.10;99.90
23507;DHT22;11930;53.076;18.250;2022-10-16T01:29:30;13.10;99.90
23507;DHT22;11930;53.076;18.250;2022-10-16T01:32:04;13.10;99.90
23507;DHT22;11930;53.076;18.250;2022-10-16T01:34:46;13.00;99.90
23507;DHT22;11930;53.076;18.250;2022-10-16T01:37:18;13.10;99.90
23507;DHT22;11930;53.076;18.250;2022-10-16T01:39:47;13.10;99.90
23507;DHT22;11930;53.076;18.250;2022-10-16T01:42:30;13.10;99.90
23507;DHT22;11930;53.076;18.250;2022-10-16T01:45:00;13.10;99.90
23507;DHT22;11930;53.076;18.250;2022-10-16T01:47:29;13.10;99.90
23507;DHT22;11930;53.076;18.250;2022-10-16T01:49:58;13.10;99.90
23507;DHT22;11930;53.076;18.250;2022-10-16T01:52:26;13.10;99.90
23507;DHT22;11930;53.076;18.250;2022-10-16T01:54:55;13.10;99.90
23507;DHT22;11930;53.076;18.250;2022-10-16T01:57:24;13.10;99.90
23507;DHT22;11930;53.076;18.250;2022-10-16T01:59:54;13.20;99.90
23507;DHT22;11930;53.076;18.250;2022-10-16T02:02:27;13.20;99.90
23507;DHT22;11930;53.076;18.250;2022-10-16T02:05:15;13.20;99.90
23507;DHT22;11930;53.076;18.250;2022-10-16T02:07:43;13.20;99.90
23507;DHT22;11930;53.076;18.250;2022-10-16T02:10:10;13.20;99.90
23507;DHT22;11930;53.076;18.250;2022-10-16T02:12:39;13.20;99.90
23507;DHT22;11930;53.076;18.250;2022-10-16T02:15:06;13.20;99.90
23507;DHT22;11930;53.076;18.250;2022-10-16T02:17:32;13.20;99.90
23507;DHT22;11930;53.076;18.250;2022-10-16T02:19:59;13.10;99.90
23507;DHT22;11930;53.076;18.250;2022-10-16T02:22:33;13.10;99.90
23507;DHT22;11930;53.076;18.250;2022-10-16T02:25:27;13.00;99.90
23507;DHT22;11930;53.076;18.250;2022-10-16T02:27:55;12.90;99.90
23507;DHT22;11930;53.076;18.250;2022-10-16T02:30:28;12.80;99.90
23507;DHT22;11930;53.076;18.250;2022-10-16T02:32:55;12.70;99.90
23507;DHT22;11930;53.076;18.250;2022-10-16T02:35:24;12.60;99.90
23507;DHT22;11930;53.076;18.250;2022-10-16T02:37:51;12.60;99.90
23507;DHT22;11930;53.076;18.250;2022-10-16T02:40:18;12.50;99.90
23507;DHT22;11930;53.076;18.250;2022-10-16T02:42:51;12.60;99.90
23507;DHT22;11930;53.076;18.250;2022-10-16T02:45:17;12.50;99.90
23507;DHT22;11930;53.076;18.250;2022-10-16T02:47:44;12.50;99.90
23507;DHT22;11930;53.076;18.250;2022-10-16T02:50:10;12.60;99.90
23507;DHT22;11930;53.076;18.250;2022-10-16T02:52:36;12.60;99.90
23507;DHT22;11930;53.076;18.250;2022-10-16T02:55:02;12.70;99.90
23507;DHT22;11930;53.076;18.250;2022-10-16T02:57:28;12.80;99.90
23507;DHT22;11930;53.076;18.250;2022-10-16T02:59:54;12.80;99.90
23507;DHT22;11930;53.076;18.250;2022-10-16T03:02:20;12.90;99.90
23507;DHT22;11930;53.076;18.250;2022-10-16T03:04:46;12.90;99.90
23507;DHT22;11930;53.076;18.250;2022-10-16T03:07:12;13.00;99.90
23507;DHT22;11930;53.076;18.250;2022-10-16T03:09:38;13.00;99.90
23507;DHT22;11930;53.076;18.250;2022-10-16T03:12:05;13.00;99.90
23507;DHT22;11930;53.076;18.250;2022-10-16T03:14:31;13.10;99.90
23507;DHT22;11930;53.076;18.250;2022-10-16T03:16:57;13.20;99.90
23507;DHT22;11930;53.076;18.250;2022-10-16T03:19:23;13.20;99.90
23507;DHT22;11930;53.076;18.250;2022-10-16T03:21:49;13.20;99.90
23507;DHT22;11930;53.076;18.250;2022-10-16T03:24:15;13.30;99.90
23507;DHT22;11930;53.076;18.250;2022-10-16T03:26:41;13.30;99.90
23507;DHT22;11930;53.076;18.250;2022-10-16T03:29:07;13.20;99.90
23507;DHT22;11930;53.076;18.250;2022-10-16T03:31:33;13.30;99.90
23507;DHT22;11930;53.076;18.250;2022-10-16T03:33:59;13.30;99.90
23507;DHT22;11930;53.076;18.250;2022-10-16T03:36:26;13.30;99.90
23507;DHT22;11930;53.076;18.250;2022-10-16T03:38:51;13.30;99.90
23507;DHT22;11930;53.076;18.250;2022-10-16T03:41:17;13.30;99.90
23507;DHT22;11930;53.076;18.250;2022-10-16T03:43:43;13.30;99.90
23507;DHT22;11930;53.076;18.250;2022-10-16T03:46:10;13.30;99.90
23507;DHT22;11930;53.076;18.250;2022-10-16T03:48:36;13.40;99.90
23507;DHT22;11930;53.076;18.250;2022-10-16T03:51:02;13.40;99.90
23507;DHT22;11930;53.076;18.250;2022-10-16T03:53:28;13.40;99.90
23507;DHT22;11930;53.076;18.250;2022-10-16T03:55:54;13.40;99.90
23507;DHT22;11930;53.076;18.250;2022-10-16T03:58:20;13.40;99.90
23507;DHT22;11930;53.076;18.250;2022-10-16T04:00:46;13.40;99.90
23507;DHT22;11930;53.076;18.250;2022-10-16T04:03:15;13.40;99.90
23507;DHT22;11930;53.076;18.250;2022-10-16T04:05:43;13.40;99.90
23507;DHT22;11930;53.076;18.250;2022-10-16T04:08:09;13.40;99.90
23507;DHT22;11930;53.076;18.250;2022-10-16T04:10:35;13.50;99.90
23507;DHT22;11930;53.076;18.250;2022-10-16T04:13:01;13.50;99.90
23507;DHT22;11930;53.076;18.250;2022-10-16T04:15:27;13.50;99.90
23507;DHT22;11930;53.076;18.250;2022-10-16T04:17:53;13.50;99.90
23507;DHT22;11930;53.076;18.250;2022-10-16T04:20:19;13.50;99.90
23507;DHT22;11930;53.076;18.250;2022-10-16T04:22:45;13.60;99.90
23507;DHT22;11930;53.076;18.250;2022-10-16T04:25:11;13.50;99.90
23507;DHT22;11930;53.076;18.250;2022-10-16T04:27:38;13.50;99.90
23507;DHT22;11930;53.076;18.250;2022-10-16T04:30:05;13.50;99.90
23507;DHT22;11930;53.076;18.250;2022-10-16T04:32:31;13.50;99.90
23507;DHT22;11930;53.076;18.250;2022-10-16T04:34:57;13.50;99.90
23507;DHT22;11930;53.076;18.250;2022-10-16T04:37:26;13.50;99.90
23507;DHT22;11930;53.076;18.250;2022-10-16T04:39:56;13.50;99.90
23507;DHT22;11930;53.076;18.250;2022-10-16T04:42:25;13.50;99.90
23507;DHT22;11930;53.076;18.250;2022-10-16T04:44:51;13.50;99.90
23507;DHT22;11930;53.076;18.250;2022-10-16T04:47:17;13.60;99.90
23507;DHT22;11930;53.076;18.250;2022-10-16T04:49:44;13.60;99.90
23507;DHT22;11930;53.076;18.250;2022-10-16T04:52:10;13.60;99.90
23507;DHT22;11930;53.076;18.250;2022-10-16T04:54:36;13.70;99.90
23507;DHT22;11930;53.076;18.250;2022-10-16T04:57:05;13.70;99.90
23507;DHT22;11930;53.076;18.250;2022-10-16T04:59:33;13.70;99.90
23507;DHT22;11930;53.076;18.250;2022-10-16T05:01:59;13.70;99.90
23507;DHT22;11930;53.076;18.250;2022-10-16T05:04:25;13.70;99.90
23507;DHT22;11930;53.076;18.250;2022-10-16T05:06:51;13.60;99.90
23507;DHT22;11930;53.076;18.250;2022-10-16T05:09:18;13.70;99.90
23507;DHT22;11930;53.076;18.250;2022-10-16T05:11:44;13.70;99.90
23507;DHT22;11930;53.076;18.250;2022-10-16T05:14:26;13.70;99.90
23507;DHT22;11930;53.076;18.250;2022-10-16T05:17:18;13.70;99.90
23507;DHT22;11930;53.076;18.250;2022-10-16T05:19:44;13.80;99.90
23507;DHT22;11930;53.076;18.250;2022-10-16T05:22:10;13.80;99.90
23507;DHT22;11930;53.076;18.250;2022-10-16T05:24:37;13.80;99.90
23507;DHT22;11930;53.076;18.250;2022-10-16T05:27:03;13.80;99.90
23507;DHT22;11930;53.076;18.250;2022-10-16T05:29:29;13.80;99.90
23507;DHT22;11930;53.076;18.250;2022-10-16T05:31:56;13.80;99.90
23507;DHT22;11930;53.076;18.250;2022-10-16T05:34:22;13.80;99.90
23507;DHT22;11930;53.076;18.250;2022-10-16T05:36:48;13.80;99.90
23507;DHT22;11930;53.076;18.250;2022-10-16T05:39:15;13.80;99.90
23507;DHT22;11930;53.076;18.250;2022-10-16T05:41:41;13.80;99.90
23507;DHT22;11930;53.076;18.250;2022-10-16T05:44:08;13.80;99.90
23507;DHT22;11930;53.076;18.250;2022-10-16T05:46:34;13.80;99.90
23507;DHT22;11930;53.076;18.250;2022-10-16T05:49:00;13.80;99.90
23507;DHT22;11930;53.076;18.250;2022-10-16T05:51:26;13.80;99.90
23507;DHT22;11930;53.076;18.250;2022-10-16T05:53:55;13.70;99.90
23507;DHT22;11930;53.076;18.250;2022-10-16T05:56:24;13.70;99.90
23507;DHT22;11930;53.076;18.250;2022-10-16T05:58:52;13.70;99.90
23507;DHT22;11930;53.076;18.250;2022-10-16T06:01:19;13.80;99.90
23507;DHT22;11930;53.076;18.250;2022-10-16T06:03:46;13.80;99.90
23507;DHT22;11930;53.076;18.250;2022-10-16T06:06:17;13.90;99.90
23507;DHT22;11930;53.076;18.250;2022-10-16T06:08:45;14.00;99.90
23507;DHT22;11930;53.076;18.250;2022-10-16T06:11:13;14.10;99.90
23507;DHT22;11930;53.076;18.250;2022-10-16T06:13:39;14.10;99.90
23507;DHT22;11930;53.076;18.250;2022-10-16T06:16:10;14.20;99.90
23507;DHT22;11930;53.076;18.250;2022-10-16T06:18:36;14.30;99.90
23507;DHT22;11930;53.076;18.250;2022-10-16T06:21:16;14.40;99.90
23507;DHT22;11930;53.076;18.250;2022-10-16T06:23:43;14.90;99.90
23507;DHT22;11930;53.076;18.250;2022-10-16T06:26:13;15.40;99.90
23507;DHT22;11930;53.076;18.250;2022-10-16T06:28:40;16.00;99.90
23507;DHT22;11930;53.076;18.250;2022-10-16T06:31:08;16.20;99.90
23507;DHT22;11930;53.076;18.250;2022-10-16T06:33:35;16.40;99.90
23507;DHT22;11930;53.076;18.250;2022-10-16T06:36:09;16.30;99.90
23507;DHT22;11930;53.076;18.250;2022-10-16T06:38:36;16.10;99.90
23507;DHT22;11930;53.076;18.250;2022-10-16T06:41:04;15.90;99.90
23507;DHT22;11930;53.076;18.250;2022-10-16T06:43:31;15.70;99.90
23507;DHT22;11930;53.076;18.250;2022-10-16T06:45:59;15.60;99.90
23507;DHT22;11930;53.076;18.250;2022-10-16T06:48:26;15.50;99.90
23507;DHT22;11930;53.076;18.250;2022-10-16T06:51:06;15.30;99.90
23507;DHT22;11930;53.076;18.250;2022-10-16T06:53:35;15.20;99.90
23507;DHT22;11930;53.076;18.250;2022-10-16T06:56:15;15.10;99.90
23507;DHT22;11930;53.076;18.250;2022-10-16T06:58:42;15.10;99.90
23507;DHT22;11930;53.076;18.250;2022-10-16T07:01:23;15.00;99.90
23507;DHT22;11930;53.076;18.250;2022-10-16T07:03:55;15.00;99.90
23507;DHT22;11930;53.076;18.250;2022-10-16T07:06:32;15.10;99.90
23507;DHT22;11930;53.076;18.250;2022-10-16T07:09:02;15.20;99.90
23507;DHT22;11930;53.076;18.250;2022-10-16T07:11:36;15.40;99.90
23507;DHT22;11930;53.076;18.250;2022-10-16T07:14:29;15.50;99.90
23507;DHT22;11930;53.076;18.250;2022-10-16T07:16:59;15.70;99.90
23507;DHT22;11930;53.076;18.250;2022-10-16T07:19:26;15.90;99.90
23507;DHT22;11930;53.076;18.250;2022-10-16T07:21:54;16.10;99.90
23507;DHT22;11930;53.076;18.250;2022-10-16T07:24:41;16.20;99.90
23507;DHT22;11930;53.076;18.250;2022-10-16T07:27:11;16.50;99.90
23507;DHT22;11930;53.076;18.250;2022-10-16T07:29:38;16.80;99.90
23507;DHT22;11930;53.076;18.250;2022-10-16T07:32:04;17.20;99.90
23507;DHT22;11930;53.076;18.250;2022-10-16T07:34:48;17.70;99.90
23507;DHT22;11930;53.076;18.250;2022-10-16T07:37:14;18.20;99.90
23507;DHT22;11930;53.076;18.250;2022-10-16T07:39:41;19.20;99.90
23507;DHT22;11930;53.076;18.250;2022-10-16T07:42:07;19.80;99.90
23507;DHT22;11930;53.076;18.250;2022-10-16T07:44:34;20.90;99.90
23507;DHT22;11930;53.076;18.250;2022-10-16T07:47:00;22.00;99.90
23507;DHT22;11930;53.076;18.250;2022-10-16T07:49:35;22.70;99.90
23507;DHT22;11930;53.076;18.250;2022-10-16T07:52:02;22.90;99.90
23507;DHT22;11930;53.076;18.250;2022-10-16T07:54:28;22.60;99.90
23507;DHT22;11930;53.076;18.250;2022-10-16T07:56:54;22.20;99.90
23507;DHT22;11930;53.076;18.250;2022-10-16T07:59:21;21.90;99.90
23507;DHT22;11930;53.076;18.250;2022-10-16T08:01:48;21.30;99.90
23507;DHT22;11930;53.076;18.250;2022-10-16T08:04:14;20.50;99.90
23507;DHT22;11930;53.076;18.250;2022-10-16T08:06:41;19.90;99.90
23507;DHT22;11930;53.076;18.250;2022-10-16T08:09:08;19.40;99.90
23507;DHT22;11930;53.076;18.250;2022-10-16T08:11:49;18.80;99.90
23507;DHT22;11930;53.076;18.250;2022-10-16T08:14:15;18.60;99.90
23507;DHT22;11930;53.076;18.250;2022-10-16T08:16:41;18.30;99.90
23507;DHT22;11930;53.076;18.250;2022-10-16T08:19:08;18.40;99.90
23507;DHT22;11930;53.076;18.250;2022-10-16T08:21:36;18.40;99.90
23507;DHT22;11930;53.076;18.250;2022-10-16T08:24:03;18.70;99.90
23507;DHT22;11930;53.076;18.250;2022-10-16T08:26:32;18.90;99.90
23507;DHT22;11930;53.076;18.250;2022-10-16T08:28:59;19.00;99.90
23507;DHT22;11930;53.076;18.250;2022-10-16T08:31:27;19.40;99.90
23507;DHT22;11930;53.076;18.250;2022-10-16T08:33:54;19.90;99.90
23507;DHT22;11930;53.076;18.250;2022-10-16T08:36:20;20.50;99.90
23507;DHT22;11930;53.076;18.250;2022-10-16T08:39:00;20.50;99.90
23507;DHT22;11930;53.076;18.250;2022-10-16T08:49:34;22.00;99.90
23507;DHT22;11930;53.076;18.250;2022-10-16T08:52:01;22.90;99.90
23507;DHT22;11930;53.076;18.250;2022-10-16T08:54:36;22.80;99.90
23507;DHT22;11930;53.076;18.250;2022-10-16T08:57:22;22.70;99.90
23507;DHT22;11930;53.076;18.250;2022-10-16T08:59:50;22.50;99.90
23507;DHT22;11930;53.076;18.250;2022-10-16T09:10:44;21.10;99.90
23507;DHT22;11930;53.076;18.250;2022-10-16T09:16:20;20.00;99.90
23507;DHT22;11930;53.076;18.250;2022-10-16T09:19:31;20.00;99.90
23507;DHT22;11930;53.076;18.250;2022-10-16T09:22:01;19.90;99.90
23507;DHT22;11930;53.076;18.250;2022-10-16T09:24:34;19.70;99.90
23507;DHT22;11930;53.076;18.250;2022-10-16T09:27:00;19.60;99.90
23507;DHT22;11930;53.076;18.250;2022-10-16T09:29:27;19.70;99.90
23507;DHT22;11930;53.076;18.250;2022-10-16T09:31:55;19.60;99.90
23507;DHT22;11930;53.076;18.250;2022-10-16T09:34:32;19.50;99.90
23507;DHT22;11930;53.076;18.250;2022-10-16T09:37:01;19.40;99.90
23507;DHT22;11930;53.076;18.250;2022-10-16T09:39:28;19.60;99.90
23507;DHT22;11930;53.076;18.250;2022-10-16T09:41:55;19.70;99.90
23507;DHT22;11930;53.076;18.250;2022-10-16T09:44:29;19.70;99.90
23507;DHT22;11930;53.076;18.250;2022-10-16T09:47:06;19.70;99.90
23507;DHT22;11930;53.076;18.250;2022-10-16T09:49:38;19.70;99.90
23507;DHT22;11930;53.076;18.250;2022-10-16T09:52:13;19.80;99.90
23507;DHT22;11930;53.076;18.250;2022-10-16T09:54:59;19.90;99.90
23507;DHT22;11930;53.076;18.250;2022-10-16T09:57:26;20.00;99.90
23507;DHT22;11930;53.076;18.250;2022-10-16T09:59:54;20.10;99.90
23507;DHT22;11930;53.076;18.250;2022-10-16T10:02:31;20.00;99.90
23507;DHT22;11930;53.076;18.250;2022-10-16T10:04:59;19.90;99.90
23507;DHT22;11930;53.076;18.250;2022-10-16T10:07:27;19.70;99.90
23507;DHT22;11930;53.076;18.250;2022-10-16T10:09:55;19.70;99.90
23507;DHT22;11930;53.076;18.250;2022-10-16T10:12:24;19.70;99.90
23507;DHT22;11930;53.076;18.250;2022-10-16T10:15:02;19.90;99.90
23507;DHT22;11930;53.076;18.250;2022-10-16T10:17:30;20.20;99.90
23507;DHT22;11930;53.076;18.250;2022-10-16T10:20:00;20.50;99.90
23507;DHT22;11930;53.076;18.250;2022-10-16T10:28:05;20.80;99.90
23507;DHT22;11930;53.076;18.250;2022-10-16T10:49:16;20.20;99.90
23507;DHT22;11930;53.076;18.250;2022-10-16T11:02:48;20.70;99.90
23507;DHT22;11930;53.076;18.250;2022-10-16T11:05:36;20.90;99.90
23507;DHT22;11930;53.076;18.250;2022-10-16T11:08:18;21.10;99.90
23507;DHT22;11930;53.076;18.250;2022-10-16T11:10:53;21.10;99.90
23507;DHT22;11930;53.076;18.250;2022-10-16T11:13:43;21.10;99.90
23507;DHT22;11930;53.076;18.250;2022-10-16T11:18:45;20.70;99.90
23507;DHT22;11930;53.076;18.250;2022-10-16T11:21:14;20.50;99.90
23507;DHT22;11930;53.076;18.250;2022-10-16T11:26:21;20.10;99.90
23507;DHT22;11930;53.076;18.250;2022-10-16T11:28:51;20.00;99.90
23507;DHT22;11930;53.076;18.250;2022-10-16T11:31:57;20.00;99.90
23507;DHT22;11930;53.076;18.250;2022-10-16T11:34:36;20.20;99.90
23507;DHT22;11930;53.076;18.250;2022-10-16T11:37:14;20.20;99.90
23507;DHT22;11930;53.076;18.250;2022-10-16T11:39:43;20.20;99.90
23507;DHT22;11930;53.076;18.250;2022-10-16T11:42:50;20.30;99.90
23507;DHT22;11930;53.076;18.250;2022-10-16T11:45:12;20.20;99.90
23507;DHT22;11930;53.076;18.250;2022-10-16T11:48:18;20.00;99.90
23507;DHT22;11930;53.076;18.250;2022-10-16T11:50:52;19.80;99.90
23507;DHT22;11930;53.076;18.250;2022-10-16T11:53:33;19.80;99.90
23507;DHT22;11930;53.076;18.250;2022-10-16T11:56:01;19.80;99.90
23507;DHT22;11930;53.076;18.250;2022-10-16T12:06:37;20.10;99.90
23507;DHT22;11930;53.076;18.250;2022-10-16T12:09:26;20.20;99.90
23507;DHT22;11930;53.076;18.250;2022-10-16T12:11:53;20.30;99.90
23507;DHT22;11930;53.076;18.250;2022-10-16T12:14:33;20.20;99.90
23507;DHT22;11930;53.076;18.250;2022-10-16T12:17:25;20.20;99.90
23507;DHT22;11930;53.076;18.250;2022-10-16T12:22:54;19.90;99.90
23507;DHT22;11930;53.076;18.250;2022-10-16T12:25:23;19.80;99.90
23507;DHT22;11930;53.076;18.250;2022-10-16T12:30:43;19.60;99.90
23507;DHT22;11930;53.076;18.250;2022-10-16T12:33:25;19.70;99.90
23507;DHT22;11930;53.076;18.250;2022-10-16T12:35:52;19.80;99.90
23507;DHT22;11930;53.076;18.250;2022-10-16T12:38:29;19.80;99.90
23507;DHT22;11930;53.076;18.250;2022-10-16T12:43:25;19.80;99.90
23507;DHT22;11930;53.076;18.250;2022-10-16T12:49:14;19.70;99.90
23507;DHT22;11930;53.076;18.250;2022-10-16T12:51:45;19.50;99.90
23507;DHT22;11930;53.076;18.250;2022-10-16T12:54:58;19.40;99.90
23507;DHT22;11930;53.076;18.250;2022-10-16T13:16:09;19.30;99.90
23507;DHT22;11930;53.076;18.250;2022-10-16T13:21:55;19.20;99.90
23507;DHT22;11930;53.076;18.250;2022-10-16T13:30:10;19.40;99.90
23507;DHT22;11930;53.076;18.250;2022-10-16T13:32:36;19.40;99.90
23507;DHT22;11930;53.076;18.250;2022-10-16T13:35:03;19.50;99.90
23507;DHT22;11930;53.076;18.250;2022-10-16T13:37:29;19.50;99.90
23507;DHT22;11930;53.076;18.250;2022-10-16T13:40:18;19.60;99.90
23507;DHT22;11930;53.076;18.250;2022-10-16T13:42:44;19.70;99.90
23507;DHT22;11930;53.076;18.250;2022-10-16T13:45:18;19.70;99.90
23507;DHT22;11930;53.076;18.250;2022-10-16T13:47:45;19.80;99.90
23507;DHT22;11930;53.076;18.250;2022-10-16T13:50:18;19.80;99.90
23507;DHT22;11930;53.076;18.250;2022-10-16T13:53:14;19.90;99.90
23507;DHT22;11930;53.076;18.250;2022-10-16T13:55:40;19.80;99.90
23507;DHT22;11930;53.076;18.250;2022-10-16T13:58:16;19.80;99.90
23507;DHT22;11930;53.076;18.250;2022-10-16T14:00:57;19.80;99.90
23507;DHT22;11930;53.076;18.250;2022-10-16T14:03:24;19.80;99.90
23507;DHT22;11930;53.076;18.250;2022-10-16T14:05:55;19.70;99.90
23507;DHT22;11930;53.076;18.250;2022-10-16T14:08:23;19.70;99.90
23507;DHT22;11930;53.076;18.250;2022-10-16T14:10:55;19.70;99.90
23507;DHT22;11930;53.076;18.250;2022-10-16T14:13:43;19.60;99.90
23507;DHT22;11930;53.076;18.250;2022-10-16T14:16:17;19.60;99.90
23507;DHT22;11930;53.076;18.250;2022-10-16T14:18:46;19.60;99.90
23507;DHT22;11930;53.076;18.250;2022-10-16T14:21:16;19.60;99.90
23507;DHT22;11930;53.076;18.250;2022-10-16T14:23:42;19.50;99.90
23507;DHT22;11930;53.076;18.250;2022-10-16T14:28:37;19.40;99.90
23507;DHT22;11930;53.076;18.250;2022-10-16T14:33:53;19.30;99.90
23507;DHT22;11930;53.076;18.250;2022-10-16T14:36:27;19.20;99.90
23507;DHT22;11930;53.076;18.250;2022-10-16T14:39:16;19.20;99.90
23507;DHT22;11930;53.076;18.250;2022-10-16T14:41:48;19.10;99.90
23507;DHT22;11930;53.076;18.250;2022-10-16T14:44:17;19.10;99.90
23507;DHT22;11930;53.076;18.250;2022-10-16T14:46:44;19.10;99.90
23507;DHT22;11930;53.076;18.250;2022-10-16T14:51:41;19.10;99.90
23507;DHT22;11930;53.076;18.250;2022-10-16T14:54:11;19.10;99.90
23507;DHT22;11930;53.076;18.250;2022-10-16T14:56:53;19.00;99.90
23507;DHT22;11930;53.076;18.250;2022-10-16T14:59:36;18.90;99.90
23507;DHT22;11930;53.076;18.250;2022-10-16T15:02:26;18.90;99.90
23507;DHT22;11930;53.076;18.250;2022-10-16T15:04:53;18.70;99.90
23507;DHT22;11930;53.076;18.250;2022-10-16T15:07:19;18.60;99.90
23507;DHT22;11930;53.076;18.250;2022-10-16T15:09:45;18.50;99.90
23507;DHT22;11930;53.076;18.250;2022-10-16T15:12:11;18.40;99.90
23507;DHT22;11930;53.076;18.250;2022-10-16T15:14:37;18.30;99.90
23507;DHT22;11930;53.076;18.250;2022-10-16T15:17:04;18.20;99.90
23507;DHT22;11930;53.076;18.250;2022-10-16T15:19:30;18.10;99.90
23507;DHT22;11930;53.076;18.250;2022-10-16T15:21:57;18.00;99.90
23507;DHT22;11930;53.076;18.250;2022-10-16T15:24:22;17.90;99.90
23507;DHT22;11930;53.076;18.250;2022-10-16T15:26:49;17.80;99.90
23507;DHT22;11930;53.076;18.250;2022-10-16T15:29:15;17.60;99.90
23507;DHT22;11930;53.076;18.250;2022-10-16T15:31:42;17.50;99.90
23507;DHT22;11930;53.076;18.250;2022-10-16T15:34:13;17.40;99.90
23507;DHT22;11930;53.076;18.250;2022-10-16T15:36:39;17.30;99.90
23507;DHT22;11930;53.076;18.250;2022-10-16T15:39:18;17.10;99.90
23507;DHT22;11930;53.076;18.250;2022-10-16T15:41:46;17.00;99.90
23507;DHT22;11930;53.076;18.250;2022-10-16T15:44:20;16.90;99.90
23507;DHT22;11930;53.076;18.250;2022-10-16T15:46:46;16.70;99.90
23507;DHT22;11930;53.076;18.250;2022-10-16T15:49:13;16.60;99.90
23507;DHT22;11930;53.076;18.250;2022-10-16T15:51:40;16.50;99.90
23507;DHT22;11930;53.076;18.250;2022-10-16T15:54:08;16.40;99.90
23507;DHT22;11930;53.076;18.250;2022-10-16T15:56:34;16.30;99.90
23507;DHT22;11930;53.076;18.250;2022-10-16T15:59:03;16.20;99.90
23507;DHT22;11930;53.076;18.250;2022-10-16T16:01:33;16.10;99.90
23507;DHT22;11930;53.076;18.250;2022-10-16T16:04:00;15.90;99.90
23507;DHT22;11930;53.076;18.250;2022-10-16T16:06:26;15.80;99.90
23507;DHT22;11930;53.076;18.250;2022-10-16T16:08:53;15.70;99.90
23507;DHT22;11930;53.076;18.250;2022-10-16T16:11:20;15.60;99.90
23507;DHT22;11930;53.076;18.250;2022-10-16T16:13:48;15.40;99.90
23507;DHT22;11930;53.076;18.250;2022-10-16T16:16:15;15.30;99.90
23507;DHT22;11930;53.076;18.250;2022-10-16T16:18:43;15.10;99.90
23507;DHT22;11930;53.076;18.250;2022-10-16T16:21:10;14.90;99.90
23507;DHT22;11930;53.076;18.250;2022-10-16T16:23:37;14.80;99.90
23507;DHT22;11930;53.076;18.250;2022-10-16T16:26:13;14.80;99.90
23507;DHT22;11930;53.076;18.250;2022-10-16T16:28:40;14.70;99.90
23507;DHT22;11930;53.076;18.250;2022-10-16T16:31:07;14.70;99.90
23507;DHT22;11930;53.076;18.250;2022-10-16T16:33:33;14.60;99.90
23507;DHT22;11930;53.076;18.250;2022-10-16T16:36:02;14.50;99.90
23507;DHT22;11930;53.076;18.250;2022-10-16T16:38:29;14.50;99.90
23507;DHT22;11930;53.076;18.250;2022-10-16T16:40:55;14.40;99.90
23507;DHT22;11930;53.076;18.250;2022-10-16T16:43:26;14.40;99.90
23507;DHT22;11930;53.076;18.250;2022-10-16T16:45:54;14.30;99.90
23507;DHT22;11930;53.076;18.250;2022-10-16T16:48:21;14.30;99.90
23507;DHT22;11930;53.076;18.250;2022-10-16T16:50:47;14.30;99.90
23507;DHT22;11930;53.076;18.250;2022-10-16T16:53:13;14.20;99.90
23507;DHT22;11930;53.076;18.250;2022-10-16T16:55:39;14.20;99.90
23507;DHT22;11930;53.076;18.250;2022-10-16T16:58:05;14.10;99.90
23507;DHT22;11930;53.076;18.250;2022-10-16T17:00:32;14.10;99.90
23507;DHT22;11930;53.076;18.250;2022-10-16T17:02:58;14.10;99.90
23507;DHT22;11930;53.076;18.250;2022-10-16T17:05:24;13.90;99.90
23507;DHT22;11930;53.076;18.250;2022-10-16T17:08:00;13.80;99.90
23507;DHT22;11930;53.076;18.250;2022-10-16T17:10:26;13.70;99.90
23507;DHT22;11930;53.076;18.250;2022-10-16T17:12:52;13.60;99.90
23507;DHT22;11930;53.076;18.250;2022-10-16T17:15:18;13.50;99.90
23507;DHT22;11930;53.076;18.250;2022-10-16T17:17:44;13.40;99.90
23507;DHT22;11930;53.076;18.250;2022-10-16T17:20:10;13.40;99.90
23507;DHT22;11930;53.076;18.250;2022-10-16T17:22:37;13.30;99.90
23507;DHT22;11930;53.076;18.250;2022-10-16T17:25:10;13.30;99.90
23507;DHT22;11930;53.076;18.250;2022-10-16T17:27:36;13.30;99.90
23507;DHT22;11930;53.076;18.250;2022-10-16T17:30:03;13.40;99.90
23507;DHT22;11930;53.076;18.250;2022-10-16T17:32:30;13.50;99.90
23507;DHT22;11930;53.076;18.250;2022-10-16T17:34:56;13.70;99.90
23507;DHT22;11930;53.076;18.250;2022-10-16T17:37:23;13.70;99.90
23507;DHT22;11930;53.076;18.250;2022-10-16T17:39:50;13.80;99.90
23507;DHT22;11930;53.076;18.250;2022-10-16T17:42:16;14.00;99.90
23507;DHT22;11930;53.076;18.250;2022-10-16T17:44:43;14.10;99.90